createdAt,value
2018-12-29T00:02:03.049Z,22.17
2018-12-29T00:04:32.164Z,20.80
2018-12-29T00:07:01.004Z,18.70
2018-12-29T00:09:30.139Z,17.85
2018-12-29T00:11:59.103Z,16.23
2018-12-29T00:14:28.210Z,20.37
2018-12-29T00:16:57.048Z,20.00
2018-12-29T00:19:26.639Z,18.35
2018-12-29T00:21:55.745Z,18.23
2018-12-29T00:24:24.653Z,19.02
2018-12-29T00:26:53.740Z,17.27
2018-12-29T00:29:22.626Z,19.17
2018-12-29T00:31:51.761Z,20.60
2018-12-29T00:34:20.678Z,19.60
2018-12-29T00:36:49.843Z,18.17
2018-12-29T00:39:18.771Z,20.25
2018-12-29T00:41:47.919Z,19.87
2018-12-29T00:44:16.826Z,14.28
2018-12-29T00:46:45.956Z,21.23
2018-12-29T00:49:15.121Z,19.42
2018-12-29T00:51:44.274Z,18.27
2018-12-29T00:54:13.389Z,17.62
2018-12-29T00:56:42.459Z,20.37
2018-12-29T00:59:11.373Z,17.20
2018-12-29T01:01:40.309Z,19.80
2018-12-29T01:04:09.154Z,19.12
2018-12-29T01:06:38.097Z,17.80
2018-12-29T01:09:07.689Z,18.62
2018-12-29T01:11:36.594Z,14.13
2018-12-29T01:14:06.707Z,21.37
2018-12-29T01:16:35.655Z,18.52
2018-12-29T01:19:04.825Z,19.90
2018-12-29T01:21:33.754Z,13.22
2018-12-29T01:24:03.254Z,17.57
2018-12-29T01:26:32.508Z,21.07
2018-12-29T01:29:01.430Z,17.70
2018-12-29T01:31:30.747Z,15.23
2018-12-29T01:34:00.115Z,17.48
2018-12-29T01:36:29.301Z,17.37
2018-12-29T01:38:58.416Z,20.30
2018-12-29T01:41:27.679Z,15.78
2018-12-29T01:43:56.566Z,15.65
2018-12-29T01:46:25.558Z,15.53
2018-12-29T01:48:54.728Z,17.12
2018-12-29T01:51:23.852Z,19.12
2018-12-29T01:53:52.705Z,13.83
2018-12-29T01:56:21.550Z,14.33
2018-12-29T01:58:50.379Z,15.68
2018-12-29T02:01:19.459Z,10.82
2018-12-29T02:03:48.562Z,17.48
2018-12-29T02:06:17.426Z,18.30
2018-12-29T02:08:46.575Z,16.60
2018-12-29T02:11:15.424Z,14.68
2018-12-29T02:13:44.364Z,15.35
2018-12-29T02:16:13.187Z,16.30
2018-12-29T02:18:42.238Z,17.95
2018-12-29T02:21:11.049Z,16.60
2018-12-29T02:23:39.891Z,15.90
2018-12-29T02:26:08.748Z,16.37
2018-12-29T02:28:37.628Z,14.07
2018-12-29T02:31:06.458Z,17.12
2018-12-29T02:33:35.534Z,9.45
2018-12-29T02:36:04.511Z,15.23
2018-12-29T02:38:33.721Z,17.77
2018-12-29T02:41:02.587Z,18.12
2018-12-29T02:43:31.509Z,16.25
2018-12-29T02:46:00.437Z,16.45
2018-12-29T02:48:29.593Z,13.55
2018-12-29T02:50:58.857Z,16.65
2018-12-29T02:53:27.695Z,14.80
2018-12-29T02:55:56.778Z,19.67
2018-12-29T02:58:25.857Z,15.32
2018-12-29T03:00:54.498Z,14.73
2018-12-29T03:03:23.436Z,18.57
2018-12-29T03:05:52.905Z,15.18
2018-12-29T03:08:21.823Z,19.02
2018-12-29T03:10:50.845Z,15.68
2018-12-29T03:13:19.946Z,14.85
2018-12-29T03:15:49.125Z,14.13
2018-12-29T03:18:18.551Z,16.55
2018-12-29T03:20:47.398Z,15.95
2018-12-29T03:23:16.572Z,17.48
2018-12-29T03:25:45.497Z,16.70
2018-12-29T03:28:14.922Z,13.75
2018-12-29T03:30:43.738Z,17.35
2018-12-29T03:33:12.813Z,12.70
2018-12-29T03:35:41.658Z,14.78
2018-12-29T03:38:10.821Z,11.33
2018-12-29T03:40:39.726Z,16.65
2018-12-29T03:43:08.929Z,18.25
2018-12-29T03:45:37.852Z,16.40
2018-12-29T03:48:06.972Z,16.15
2018-12-29T03:50:36.192Z,18.15
2018-12-29T03:53:05.123Z,6.97
2018-12-29T03:55:34.528Z,11.80
2018-12-29T03:58:03.435Z,19.15
2018-12-29T04:00:32.613Z,12.10
2018-12-29T04:03:01.826Z,11.80
2018-12-29T04:05:33.831Z,16.17
2018-12-29T04:08:02.678Z,15.20
2018-12-29T04:10:31.854Z,14.47
2018-12-29T04:13:01.717Z,9.58
2018-12-29T04:15:30.812Z,15.48
2018-12-29T04:17:59.874Z,11.80
2018-12-29T04:20:28.949Z,18.32
2018-12-29T04:22:57.781Z,15.65
2018-12-29T04:25:26.675Z,18.87
2018-12-29T04:27:55.756Z,14.70
2018-12-29T04:30:24.898Z,15.98
2018-12-29T04:32:53.742Z,13.22
2018-12-29T04:35:23.152Z,9.53
2018-12-29T04:37:52.298Z,9.20
2018-12-29T04:40:21.450Z,12.73
2018-12-29T04:42:50.315Z,14.05
2018-12-29T04:45:19.615Z,13.32
2018-12-29T04:47:49.289Z,9.28
2018-12-29T04:50:18.386Z,12.30
2018-12-29T04:52:47.571Z,13.60
2018-12-29T04:55:16.666Z,10.50
2018-12-29T04:57:45.532Z,10.78
2018-12-29T05:00:14.517Z,16.77
2018-12-29T05:02:43.638Z,16.57
2018-12-29T05:05:12.560Z,13.28
2018-12-29T05:07:41.961Z,10.93
2018-12-29T05:10:11.195Z,16.57
2018-12-29T05:12:40.276Z,16.97
2018-12-29T05:15:09.528Z,19.57
2018-12-29T05:17:38.973Z,15.15
2018-12-29T05:20:07.920Z,11.30
2018-12-29T05:22:36.902Z,16.82
2018-12-29T05:25:06.342Z,18.45
2018-12-29T05:27:35.340Z,16.82
2018-12-29T05:30:04.832Z,17.75
2018-12-29T05:32:34.060Z,16.25
2018-12-29T05:35:02.920Z,15.58
2018-12-29T05:37:31.968Z,17.17
2018-12-29T05:40:00.834Z,10.60
2018-12-29T05:42:30.033Z,21.20
2018-12-29T05:44:58.860Z,18.82
2018-12-29T05:47:27.684Z,9.75
2018-12-29T05:49:56.504Z,13.13
2018-12-29T05:52:25.570Z,20.45
2018-12-29T05:54:54.652Z,18.50
2018-12-29T05:57:23.705Z,17.57
2018-12-29T05:59:52.544Z,17.73
2018-12-29T06:02:21.349Z,15.63
2018-12-29T06:04:50.644Z,19.05
2018-12-29T06:07:19.979Z,22.77
2018-12-29T06:09:48.806Z,19.07
2018-12-29T06:12:18.061Z,14.07
2018-12-29T06:14:46.900Z,19.87
2018-12-29T06:17:15.800Z,19.27
2018-12-29T06:19:45.068Z,18.87
2018-12-29T06:22:14.126Z,18.90
2018-12-29T06:24:43.630Z,20.55
2018-12-29T06:27:12.717Z,16.82
2018-12-29T06:29:41.883Z,18.20
2018-12-29T06:32:10.765Z,17.62
2018-12-29T06:34:39.577Z,15.35
2018-12-29T06:37:08.709Z,16.73
2018-12-29T06:39:37.550Z,17.45
2018-12-29T06:42:06.481Z,15.20
2018-12-29T06:44:35.492Z,17.95
2018-12-29T06:47:04.649Z,13.28
2018-12-29T06:49:33.756Z,17.00
2018-12-29T06:52:02.731Z,15.85
2018-12-29T06:54:31.910Z,13.15
2018-12-29T06:57:01.033Z,13.70
2018-12-29T06:59:29.912Z,17.23
2018-12-29T07:01:58.738Z,17.70
2018-12-29T07:04:27.642Z,15.60
2018-12-29T07:06:56.725Z,17.40
2018-12-29T07:09:25.794Z,18.00
2018-12-29T07:11:54.876Z,14.80
2018-12-29T07:14:23.708Z,18.23
2018-12-29T07:16:52.837Z,13.80
2018-12-29T07:19:22.005Z,15.35
2018-12-29T07:21:50.856Z,18.62
2018-12-29T07:24:19.716Z,18.52
2018-12-29T07:26:48.599Z,17.85
2018-12-29T07:29:17.767Z,15.23
2018-12-29T07:31:46.789Z,12.90
2018-12-29T07:34:15.824Z,15.53
2018-12-29T07:36:44.976Z,16.85
2018-12-29T07:39:14.081Z,11.28
2018-12-29T07:41:43.433Z,15.13
2018-12-29T07:44:12.593Z,17.23
2018-12-29T07:46:41.729Z,14.95
2018-12-29T07:49:10.568Z,16.77
2018-12-29T07:51:39.498Z,17.20
2018-12-29T07:54:08.540Z,19.20
2018-12-29T07:56:37.492Z,18.52
2018-12-29T07:59:06.426Z,16.55
2018-12-29T08:01:35.277Z,15.53
2018-12-29T08:04:04.425Z,15.20
2018-12-29T08:06:33.425Z,16.52
2018-12-29T08:09:02.616Z,18.42
2018-12-29T08:11:31.846Z,19.05
2018-12-29T08:14:00.787Z,17.48
2018-12-29T08:16:30.889Z,17.60
2018-12-29T08:19:00.026Z,16.90
2018-12-29T08:21:28.888Z,17.92
2018-12-29T08:23:58.161Z,18.00
2018-12-29T08:26:27.354Z,15.50
2018-12-29T08:28:56.872Z,17.77
2018-12-29T08:31:25.800Z,17.10
2018-12-29T08:33:54.857Z,16.35
2018-12-29T08:36:23.787Z,12.50
2018-12-29T08:38:52.612Z,21.27
2018-12-29T08:41:21.525Z,16.80
2018-12-29T08:43:50.496Z,17.85
2018-12-29T08:46:19.314Z,17.32
2018-12-29T08:48:48.752Z,14.47
2018-12-29T08:51:17.665Z,18.05
2018-12-29T08:53:46.737Z,20.10
2018-12-29T08:56:16.157Z,16.60
2018-12-29T08:58:45.070Z,17.67
2018-12-29T09:01:13.918Z,17.42
2018-12-29T09:03:42.833Z,14.78
2018-12-29T09:06:11.695Z,17.67
2018-12-29T09:08:42.166Z,16.65
2018-12-29T09:11:11.311Z,14.68
2018-12-29T09:13:40.733Z,17.27
2018-12-29T09:16:10.426Z,19.02
2018-12-29T09:18:40.160Z,17.67
2018-12-29T09:21:09.368Z,15.15
2018-12-29T09:23:38.471Z,17.80
2018-12-29T09:26:07.492Z,18.70
2018-12-29T09:28:36.882Z,19.02
2018-12-29T09:31:05.859Z,18.32
2018-12-29T09:33:35.785Z,17.45
2018-12-29T09:36:05.390Z,18.95
2018-12-29T09:38:35.038Z,13.83
2018-12-29T09:41:04.132Z,19.60
2018-12-29T09:43:33.445Z,14.45
2018-12-29T09:46:02.533Z,16.32
2018-12-29T09:48:32.078Z,15.60
2018-12-29T09:51:01.530Z,20.55
2018-12-29T09:53:30.361Z,18.87
2018-12-29T09:55:59.676Z,16.73
2018-12-29T09:58:28.659Z,14.45
2018-12-29T10:00:57.641Z,16.62
2018-12-29T10:03:27.405Z,19.62
2018-12-29T10:05:56.378Z,15.10
2018-12-29T10:08:26.382Z,17.75
2018-12-29T10:10:56.449Z,17.32
2018-12-29T10:13:26.415Z,18.65
2018-12-29T10:15:55.468Z,10.68
2018-12-29T10:18:24.693Z,19.30
2018-12-29T10:20:53.532Z,19.75
2018-12-29T10:23:22.732Z,18.67
2018-12-29T10:25:51.997Z,20.72
2018-12-29T10:28:20.937Z,18.70
2018-12-29T10:30:50.532Z,18.80
2018-12-29T10:33:19.348Z,17.60
2018-12-29T10:35:48.266Z,15.65
2018-12-29T10:38:17.960Z,18.12
2018-12-29T10:40:47.370Z,19.42
2018-12-29T10:43:16.667Z,20.75
2018-12-29T10:45:45.577Z,16.48
2018-12-29T10:48:14.754Z,19.17
2018-12-29T10:50:43.929Z,18.40
2018-12-29T10:53:13.375Z,18.10
2018-12-29T10:55:42.537Z,21.17
2018-12-29T10:58:11.462Z,17.98
2018-12-29T11:00:40.934Z,20.27
2018-12-29T11:03:10.361Z,19.23
2018-12-29T11:05:39.270Z,16.45
2018-12-29T11:08:08.109Z,17.35
2018-12-29T11:10:37.038Z,19.70
2018-12-29T11:13:06.497Z,15.35
2018-12-29T11:15:35.698Z,15.55
2018-12-29T11:18:04.796Z,16.87
2018-12-29T11:20:33.972Z,19.02
2018-12-29T11:23:02.920Z,15.55
2018-12-29T11:25:32.460Z,16.20
2018-12-29T11:28:01.486Z,16.35
2018-12-29T11:30:30.571Z,14.65
2018-12-29T11:33:00.004Z,17.87
2018-12-29T11:35:29.515Z,15.32
2018-12-29T11:37:58.727Z,15.58
2018-12-29T11:40:28.519Z,17.82
2018-12-29T11:42:57.442Z,13.45
2018-12-29T11:45:26.413Z,17.30
2018-12-29T11:47:55.286Z,17.37
2018-12-29T11:50:24.530Z,17.25
2018-12-29T11:52:53.645Z,13.08
2018-12-29T11:55:22.482Z,18.20
2018-12-29T11:57:51.484Z,18.12
2018-12-29T12:00:20.596Z,15.80
2018-12-29T12:02:49.692Z,22.02
2018-12-29T12:05:19.317Z,18.15
2018-12-29T12:07:48.748Z,16.10
2018-12-29T12:10:17.943Z,19.17
2018-12-29T12:12:47.084Z,17.60
2018-12-29T12:15:16.258Z,16.17
2018-12-29T12:17:45.360Z,18.23
2018-12-29T12:20:14.885Z,19.23
2018-12-29T12:22:44.088Z,14.43
2018-12-29T12:25:13.320Z,16.45
2018-12-29T12:27:42.746Z,15.23
2018-12-29T12:30:12.200Z,16.87
2018-12-29T12:32:41.311Z,14.38
2018-12-29T12:35:10.232Z,18.95
2018-12-29T12:37:39.077Z,15.10
2018-12-29T12:40:08.241Z,19.87
2018-12-29T12:42:37.400Z,16.90
2018-12-29T12:45:06.539Z,17.40
2018-12-29T12:47:35.810Z,17.67
2018-12-29T12:50:05.391Z,17.32
2018-12-29T12:52:34.917Z,18.77
2018-12-29T12:55:04.185Z,18.75
2018-12-29T12:57:33.036Z,19.25
2018-12-29T13:00:02.553Z,19.02
2018-12-29T13:02:31.700Z,19.80
2018-12-29T13:05:01.006Z,18.65
2018-12-29T13:07:30.433Z,16.40
2018-12-29T13:09:59.578Z,16.45
2018-12-29T13:12:28.885Z,17.80
2018-12-29T13:14:58.135Z,20.60
2018-12-29T13:17:27.321Z,19.60
2018-12-29T13:19:56.420Z,14.75
2018-12-29T13:22:25.602Z,18.62
2018-12-29T13:24:54.873Z,16.27
2018-12-29T13:27:24.626Z,14.55
2018-12-29T13:29:54.301Z,17.92
2018-12-29T13:32:23.439Z,9.40
2018-12-29T13:34:53.129Z,15.20
2018-12-29T13:37:22.457Z,15.30
2018-12-29T13:39:51.606Z,16.90
2018-12-29T13:42:20.551Z,15.88
2018-12-29T13:44:49.867Z,17.25
2018-12-29T13:47:18.865Z,17.73
2018-12-29T13:49:47.937Z,16.12
2018-12-29T13:52:17.585Z,14.63
2018-12-29T13:54:46.899Z,18.57
2018-12-29T13:57:19.163Z,18.75
2018-12-29T13:59:48.557Z,17.20
2018-12-29T14:02:17.646Z,20.32
2018-12-29T14:04:46.679Z,14.23
2018-12-29T14:07:15.834Z,15.23
2018-12-29T14:09:45.103Z,14.95
2018-12-29T14:12:14.024Z,14.15
2018-12-29T14:14:43.715Z,18.00
2018-12-29T14:17:13.014Z,13.83
2018-12-29T14:19:42.003Z,18.30
2018-12-29T14:22:10.940Z,19.25
2018-12-29T14:24:39.919Z,16.95
2018-12-29T14:27:09.829Z,19.05
2018-12-29T14:29:39.288Z,19.05
2018-12-29T14:32:08.224Z,18.10
2018-12-29T14:34:37.363Z,17.95
2018-12-29T14:37:06.916Z,17.90
2018-12-29T14:39:36.026Z,15.18
2018-12-29T14:42:05.356Z,18.10
2018-12-29T14:44:34.510Z,18.07
2018-12-29T14:47:03.763Z,18.73
2018-12-29T14:49:32.688Z,22.30
2018-12-29T14:52:02.129Z,21.55
2018-12-29T14:54:31.650Z,14.13
2018-12-29T14:57:00.528Z,19.73
2018-12-29T14:59:29.603Z,17.82
2018-12-29T15:01:58.548Z,20.00
2018-12-29T15:04:27.465Z,16.67
2018-12-29T15:06:56.554Z,18.32
2018-12-29T15:09:25.525Z,17.57
2018-12-29T15:11:54.729Z,21.60
2018-12-29T15:14:23.689Z,13.95
2018-12-29T15:16:52.991Z,19.45
2018-12-29T15:19:32.696Z,18.45
2018-12-29T15:22:01.968Z,18.67
2018-12-29T15:24:31.094Z,17.15
2018-12-29T15:27:00.362Z,19.17
2018-12-29T15:29:29.244Z,18.90
2018-12-29T15:31:58.175Z,17.45
2018-12-29T15:34:27.031Z,19.37
2018-12-29T15:36:56.220Z,15.48
2018-12-29T15:39:25.899Z,19.35
2018-12-29T15:41:56.001Z,16.27
2018-12-29T15:44:25.510Z,17.25
2018-12-29T15:46:54.684Z,19.85
2018-12-29T15:49:23.827Z,16.37
2018-12-29T15:51:53.149Z,14.00
2018-12-29T15:54:22.607Z,18.75
2018-12-29T15:56:51.856Z,18.77
2018-12-29T15:59:21.011Z,21.82
2018-12-29T16:01:50.399Z,18.60
2018-12-29T16:04:20.055Z,17.30
2018-12-29T16:06:49.081Z,15.35
2018-12-29T16:09:18.291Z,19.37
2018-12-29T16:11:47.709Z,20.57
2018-12-29T16:14:16.641Z,15.78
2018-12-29T16:16:46.149Z,20.72
2018-12-29T16:19:15.380Z,18.35
2018-12-29T16:21:44.546Z,14.33
2018-12-29T16:24:13.846Z,18.40
2018-12-29T16:26:43.127Z,18.07
2018-12-29T16:29:13.549Z,14.90
2018-12-29T16:31:42.849Z,15.23
2018-12-29T16:34:12.177Z,17.23
2018-12-29T16:36:41.657Z,16.85
2018-12-29T16:39:10.766Z,18.85
2018-12-29T16:41:39.997Z,17.12
2018-12-29T16:44:09.052Z,15.45
2018-12-29T16:46:38.273Z,13.98
2018-12-29T16:49:07.285Z,15.20
2018-12-29T16:51:36.368Z,11.35
2018-12-29T16:54:05.627Z,16.42
2018-12-29T16:56:35.110Z,16.67
2018-12-29T16:59:04.580Z,16.27
2018-12-29T17:01:33.660Z,12.33
2018-12-29T17:04:02.807Z,16.40
2018-12-29T17:06:32.356Z,16.93
2018-12-29T17:09:01.432Z,15.78
2018-12-29T17:11:30.485Z,18.73
2018-12-29T17:13:59.385Z,16.12
2018-12-29T17:16:28.588Z,19.98
2018-12-29T17:18:57.737Z,16.77
2018-12-29T17:21:26.737Z,15.90
2018-12-29T17:23:57.057Z,15.45
2018-12-29T17:26:26.257Z,15.05
2018-12-29T17:28:55.399Z,14.35
2018-12-29T17:31:25.794Z,14.30
2018-12-29T17:33:54.812Z,18.30
2018-12-29T17:36:24.247Z,19.73
2018-12-29T17:38:53.821Z,17.55
2018-12-29T17:41:22.683Z,18.80
2018-12-29T17:43:52.126Z,16.23
2018-12-29T17:46:21.439Z,10.65
2018-12-29T17:48:50.653Z,14.65
2018-12-29T17:51:19.790Z,18.98
2018-12-29T17:53:49.117Z,17.48
2018-12-29T17:56:18.660Z,15.95
2018-12-29T17:58:47.835Z,13.53
2018-12-29T18:01:16.676Z,17.40
2018-12-29T18:03:46.177Z,15.43
2018-12-29T18:06:15.111Z,15.95
2018-12-29T18:08:44.295Z,18.52
2018-12-29T18:11:13.335Z,14.45
2018-12-29T18:13:42.757Z,14.13
2018-12-29T18:16:12.058Z,14.53
2018-12-29T18:18:41.100Z,15.40
2018-12-29T18:21:10.117Z,11.12
2018-12-29T18:23:39.235Z,15.63
2018-12-29T18:26:08.663Z,14.58
2018-12-29T18:28:37.889Z,11.05
2018-12-29T18:31:07.420Z,16.30
2018-12-29T18:33:37.327Z,15.13
2018-12-29T18:36:06.408Z,15.32
2018-12-29T18:38:35.571Z,12.73
2018-12-29T18:41:04.404Z,14.28
2018-12-29T18:43:33.504Z,12.50
2018-12-29T18:46:02.358Z,14.03
2018-12-29T18:48:31.649Z,16.17
2018-12-29T18:51:00.750Z,13.40
2018-12-29T18:53:29.813Z,13.90
2018-12-29T18:55:59.142Z,12.50
2018-12-29T18:58:28.083Z,12.70
2018-12-29T19:00:57.286Z,11.30
2018-12-29T19:03:26.320Z,13.28
2018-12-29T19:05:55.666Z,18.20
2018-12-29T19:08:24.637Z,13.88
2018-12-29T19:10:53.652Z,10.85
2018-12-29T19:13:23.078Z,14.73
2018-12-29T19:15:52.278Z,13.72
2018-12-29T19:18:21.281Z,13.78
2018-12-29T19:20:51.597Z,14.47
2018-12-29T19:23:21.438Z,14.43
2018-12-29T19:25:51.020Z,12.30
2018-12-29T19:28:20.631Z,15.80
2018-12-29T19:30:49.857Z,13.68
2018-12-29T19:33:19.413Z,11.60
2018-12-29T19:35:49.211Z,13.80
2018-12-29T19:38:18.758Z,9.80
2018-12-29T19:40:51.888Z,13.90
2018-12-29T19:43:21.559Z,12.03
2018-12-29T19:45:50.882Z,13.15
2018-12-29T19:48:19.898Z,14.55
2018-12-29T19:50:49.161Z,11.18
2018-12-29T19:53:18.320Z,10.45
2018-12-29T19:55:47.386Z,11.60
2018-12-29T19:58:16.229Z,9.93
2018-12-29T20:00:45.291Z,12.90
2018-12-29T20:03:14.653Z,20.08
2018-12-29T20:05:44.153Z,13.70
2018-12-29T20:08:13.155Z,12.60
2018-12-29T20:10:42.462Z,11.33
2018-12-29T20:13:11.521Z,14.05
2018-12-29T20:15:40.728Z,12.78
2018-12-29T20:18:10.115Z,11.60
2018-12-29T20:20:39.233Z,10.05
2018-12-29T20:23:08.162Z,15.80
2018-12-29T20:25:37.140Z,10.13
2018-12-29T20:28:06.210Z,12.75
2018-12-29T20:30:35.465Z,9.35
2018-12-29T20:33:04.753Z,13.68
2018-12-29T20:35:33.732Z,9.53
2018-12-29T20:38:02.609Z,12.18
2018-12-29T20:40:31.515Z,13.28
2018-12-29T20:43:00.424Z,9.03
2018-12-29T20:45:29.486Z,10.98
2018-12-29T20:47:58.502Z,9.85
2018-12-29T20:50:27.640Z,10.88
2018-12-29T20:52:56.543Z,13.53
2018-12-29T20:55:25.776Z,12.65
2018-12-29T20:57:54.622Z,11.97
2018-12-29T21:00:23.785Z,9.33
2018-12-29T21:02:53.346Z,11.45
2018-12-29T21:05:22.569Z,8.05
2018-12-29T21:07:52.555Z,11.97
2018-12-29T21:10:22.282Z,11.43
2018-12-29T21:12:51.166Z,12.00
2018-12-29T21:15:20.278Z,10.82
2018-12-29T21:17:52.176Z,10.03
2018-12-29T21:20:21.259Z,10.50
2018-12-29T21:22:50.229Z,9.90
2018-12-29T21:25:20.196Z,9.55
2018-12-29T21:27:49.192Z,11.35
2018-12-29T21:30:18.429Z,9.93
2018-12-29T21:32:47.334Z,10.82
2018-12-29T21:35:16.361Z,10.68
2018-12-29T21:37:45.823Z,8.60
2018-12-29T21:40:14.808Z,8.08
2018-12-29T21:42:44.226Z,9.65
2018-12-29T21:45:13.410Z,8.10
2018-12-29T21:47:42.329Z,7.97
2018-12-29T21:50:11.348Z,8.48
2018-12-29T21:52:40.577Z,7.45
2018-12-29T21:55:09.706Z,7.42
2018-12-29T21:57:38.808Z,5.60
2018-12-29T22:00:09.318Z,6.75
2018-12-29T22:02:38.749Z,8.00
2018-12-29T22:05:07.686Z,5.67
2018-12-29T22:07:37.305Z,5.65
2018-12-29T22:10:06.742Z,5.80
2018-12-29T22:12:35.544Z,6.17
2018-12-29T22:15:07.721Z,3.70
2018-12-29T22:17:36.748Z,4.33
2018-12-29T22:20:06.018Z,5.97
2018-12-29T22:22:34.932Z,5.47
2018-12-29T22:25:04.186Z,6.92
2018-12-29T22:27:33.289Z,5.17
2018-12-29T22:30:02.217Z,3.22
2018-12-29T22:32:31.473Z,4.70
2018-12-29T22:35:00.936Z,3.80
2018-12-29T22:37:30.758Z,3.85
2018-12-29T22:39:59.945Z,5.50
2018-12-29T22:42:29.134Z,4.85
2018-12-29T22:44:58.400Z,4.65
2018-12-29T22:47:27.571Z,5.12
2018-12-29T22:49:56.502Z,5.55
2018-12-29T22:52:25.766Z,5.00
2018-12-29T22:54:54.710Z,5.28
2018-12-29T22:57:23.748Z,4.28
2018-12-29T22:59:53.300Z,4.53
2018-12-29T23:02:22.312Z,4.75
2018-12-29T23:04:51.294Z,6.40
2018-12-29T23:07:21.119Z,4.55
2018-12-29T23:09:50.238Z,4.92
2018-12-29T23:12:19.351Z,5.85
2018-12-29T23:14:48.625Z,4.65
2018-12-29T23:17:17.851Z,5.00
2018-12-29T23:19:47.116Z,2.98
2018-12-29T23:22:16.084Z,4.33
2018-12-29T23:24:45.062Z,5.42
2018-12-29T23:27:13.895Z,3.65
2018-12-29T23:29:42.887Z,4.92
2018-12-29T23:32:11.981Z,6.30
2018-12-29T23:34:41.103Z,6.35
2018-12-29T23:37:10.354Z,5.60
2018-12-29T23:39:39.445Z,5.12
2018-12-29T23:42:08.653Z,4.97
2018-12-29T23:44:37.505Z,4.08
2018-12-29T23:47:06.567Z,5.05
2018-12-29T23:49:36.225Z,5.87
2018-12-29T23:52:05.840Z,6.78
2018-12-29T23:54:34.803Z,5.37
2018-12-29T23:57:03.968Z,4.47
2018-12-29T23:59:32.835Z,6.05
